createdAt,value
2022-09-23T00:02:45.749Z,100
2022-09-23T00:12:45.692Z,100
2022-09-23T00:22:45.693Z,100
2022-09-23T00:32:45.704Z,100
2022-09-23T00:42:45.756Z,100
2022-09-23T00:52:45.675Z,100
2022-09-23T01:02:45.808Z,100
2022-09-23T01:12:45.673Z,100
2022-09-23T01:22:45.688Z,100
2022-09-23T01:32:45.689Z,100
2022-09-23T01:42:45.711Z,100
2022-09-23T01:52:45.674Z,100
2022-09-23T02:02:45.777Z,100
2022-09-23T02:12:45.694Z,100
2022-09-23T02:22:45.739Z,100
2022-09-23T02:32:45.714Z,100
2022-09-23T02:42:45.727Z,100
2022-09-23T02:52:45.693Z,100
2022-09-23T03:02:45.771Z,100
2022-09-23T03:12:45.703Z,100
2022-09-23T03:22:45.727Z,100
2022-09-23T03:32:45.854Z,100
2022-09-23T03:42:45.735Z,100
2022-09-23T03:52:45.688Z,100
2022-09-23T04:02:45.715Z,100
2022-09-23T04:12:45.702Z,100
2022-09-23T04:22:45.758Z,100
2022-09-23T04:32:45.750Z,100
2022-09-23T04:42:45.752Z,100
2022-09-23T04:52:45.717Z,100
2022-09-23T05:02:45.777Z,100
2022-09-23T05:12:45.735Z,100
2022-09-23T05:22:45.780Z,100
2022-09-23T05:32:45.740Z,100
2022-09-23T05:42:45.756Z,100
2022-09-23T05:52:45.751Z,100
2022-09-23T06:02:45.923Z,100
2022-09-23T06:12:45.749Z,100
2022-09-23T06:22:45.900Z,100
2022-09-23T06:32:45.730Z,100
2022-09-23T06:42:49.017Z,100
2022-09-23T06:52:45.739Z,100
2022-09-23T07:02:45.882Z,100
2022-09-23T07:12:45.724Z,100
2022-09-23T07:22:45.738Z,100
2022-09-23T07:32:48.821Z,100
2022-09-23T07:42:45.754Z,100
2022-09-23T07:52:45.750Z,100
2022-09-23T08:02:48.420Z,100
2022-09-23T08:12:45.689Z,100
2022-09-23T08:22:45.721Z,98
2022-09-23T08:32:45.709Z,95
2022-09-23T08:42:45.706Z,92
2022-09-23T08:52:45.684Z,86
2022-09-23T09:02:45.787Z,79
2022-09-23T09:12:45.666Z,79
2022-09-23T09:22:45.742Z,67
2022-09-23T09:32:45.669Z,68
2022-09-23T09:42:45.662Z,70
2022-09-23T09:52:45.575Z,62
2022-09-23T10:02:45.622Z,63
2022-09-23T10:12:45.561Z,58
2022-09-23T10:22:45.575Z,57
2022-09-23T10:32:45.548Z,57
2022-09-23T10:42:45.557Z,57
2022-09-23T10:52:45.506Z,53
2022-09-23T11:02:45.539Z,53
2022-09-23T11:12:45.513Z,51
2022-09-23T11:22:45.589Z,52
2022-09-23T11:32:45.560Z,50
2022-09-23T11:42:45.497Z,52
2022-09-23T11:52:45.490Z,48
2022-09-23T12:02:53.054Z,50
2022-09-23T12:12:45.491Z,52
2022-09-23T12:22:45.483Z,52
2022-09-23T12:32:45.491Z,53
2022-09-23T12:42:45.510Z,55
2022-09-23T12:52:45.498Z,56
2022-09-23T13:02:45.456Z,55
2022-09-23T13:12:45.430Z,55
2022-09-23T13:22:45.430Z,55
2022-09-23T13:32:45.384Z,56
2022-09-23T13:42:45.421Z,55
2022-09-23T13:52:45.398Z,54
2022-09-23T14:02:45.415Z,55
2022-09-23T14:12:45.373Z,54
2022-09-23T14:22:45.389Z,55
2022-09-23T14:32:45.337Z,56
2022-09-23T14:42:45.391Z,56
2022-09-23T14:52:45.352Z,57
2022-09-23T15:02:45.424Z,58
2022-09-23T15:12:45.339Z,58
2022-09-23T15:22:45.387Z,58
2022-09-23T15:32:45.347Z,58
2022-09-23T15:42:45.308Z,60
2022-09-23T15:52:45.314Z,61
2022-09-23T16:02:45.437Z,63
2022-09-23T16:12:45.272Z,64
2022-09-23T16:22:45.294Z,68
2022-09-23T16:32:45.279Z,67
2022-09-23T16:42:45.278Z,61
2022-09-23T16:52:45.240Z,63
2022-09-23T17:02:45.264Z,62
2022-09-23T17:12:45.215Z,60
2022-09-23T17:22:45.222Z,60
2022-09-23T17:32:45.241Z,62
2022-09-23T17:42:45.198Z,64
2022-09-23T17:52:45.180Z,70
2022-09-23T18:02:45.197Z,76
2022-09-23T18:12:45.183Z,93
2022-09-23T18:22:45.188Z,97
2022-09-23T18:32:45.176Z,100
2022-09-23T18:42:45.191Z,100
2022-09-23T18:52:45.172Z,100
2022-09-23T19:02:45.191Z,100
2022-09-23T19:12:45.163Z,100
2022-09-23T19:22:45.153Z,100
2022-09-23T19:32:45.142Z,100
2022-09-23T19:42:45.121Z,100
2022-09-23T19:52:45.094Z,100
2022-09-23T20:02:45.175Z,100
2022-09-23T20:12:45.121Z,100
2022-09-23T20:22:45.143Z,100
2022-09-23T20:32:45.105Z,100
2022-09-23T20:42:45.117Z,100
2022-09-23T20:52:45.098Z,100
2022-09-23T21:02:45.103Z,100
2022-09-23T21:12:45.090Z,100
2022-09-23T21:22:45.076Z,100
2022-09-23T21:32:45.057Z,100
2022-09-23T21:42:45.077Z,100
2022-09-23T21:52:45.062Z,100
2022-09-23T22:02:45.101Z,100
2022-09-23T22:12:45.033Z,100
2022-09-23T22:22:45.068Z,100
2022-09-23T22:32:45.063Z,100
2022-09-23T22:42:45.093Z,100
2022-09-23T22:52:45.049Z,100
2022-09-23T23:02:45.044Z,100
2022-09-23T23:12:45.021Z,100
2022-09-23T23:22:45.050Z,100
2022-09-23T23:32:45.004Z,100
2022-09-23T23:42:45.031Z,100
2022-09-23T23:52:45.026Z,100
